sensor_id;sensor_type;location;lat;lon;timestamp;P1;durP1;ratioP1;P2;durP2;ratioP2
10442;SDS011;5269;51.146;16.986;2022-12-08T00:02:29;5.93;;;4.37;;
10442;SDS011;5269;51.146;16.986;2022-12-08T00:04:59;5.72;;;4.28;;
10442;SDS011;5269;51.146;16.986;2022-12-08T00:07:47;8.10;;;4.40;;
10442;SDS011;5269;51.146;16.986;2022-12-08T00:10:41;7.70;;;4.10;;
10442;SDS011;5269;51.146;16.986;2022-12-08T00:13:29;6.50;;;4.30;;
10442;SDS011;5269;51.146;16.986;2022-12-08T00:16:00;6.57;;;4.20;;
10442;SDS011;5269;51.146;16.986;2022-12-08T00:18:30;6.35;;;4.03;;
10442;SDS011;5269;51.146;16.986;2022-12-08T00:21:11;5.47;;;3.95;;
10442;SDS011;5269;51.146;16.986;2022-12-08T00:23:53;6.10;;;3.40;;
10442;SDS011;5269;51.146;16.986;2022-12-08T00:26:38;5.47;;;2.92;;
10442;SDS011;5269;51.146;16.986;2022-12-08T00:29:08;3.58;;;3.08;;
10442;SDS011;5269;51.146;16.986;2022-12-08T00:31:40;5.22;;;3.55;;
10442;SDS011;5269;51.146;16.986;2022-12-08T00:34:10;4.35;;;3.58;;
10442;SDS011;5269;51.146;16.986;2022-12-08T00:36:40;3.55;;;3.22;;
10442;SDS011;5269;51.146;16.986;2022-12-08T00:39:10;6.05;;;3.47;;
10442;SDS011;5269;51.146;16.986;2022-12-08T00:41:50;5.72;;;3.50;;
10442;SDS011;5269;51.146;16.986;2022-12-08T00:44:37;6.43;;;3.22;;
10442;SDS011;5269;51.146;16.986;2022-12-08T00:47:09;5.30;;;3.22;;
10442;SDS011;5269;51.146;16.986;2022-12-08T00:49:39;4.88;;;3.20;;
10442;SDS011;5269;51.146;16.986;2022-12-08T00:52:06;4.53;;;3.10;;
10442;SDS011;5269;51.146;16.986;2022-12-08T00:54:38;4.38;;;2.95;;
10442;SDS011;5269;51.146;16.986;2022-12-08T00:57:18;4.95;;;3.30;;
10442;SDS011;5269;51.146;16.986;2022-12-08T00:59:45;4.38;;;3.03;;
10442;SDS011;5269;51.146;16.986;2022-12-08T01:02:20;6.13;;;3.30;;
10442;SDS011;5269;51.146;16.986;2022-12-08T01:04:52;5.13;;;3.30;;
10442;SDS011;5269;51.146;16.986;2022-12-08T01:07:30;4.80;;;3.25;;
10442;SDS011;5269;51.146;16.986;2022-12-08T01:09:59;4.70;;;3.50;;
10442;SDS011;5269;51.146;16.986;2022-12-08T01:12:39;4.85;;;3.22;;
10442;SDS011;5269;51.146;16.986;2022-12-08T01:15:10;4.40;;;3.20;;
10442;SDS011;5269;51.146;16.986;2022-12-08T01:17:49;3.97;;;3.25;;
10442;SDS011;5269;51.146;16.986;2022-12-08T01:20:19;3.25;;;2.95;;
10442;SDS011;5269;51.146;16.986;2022-12-08T01:23:00;6.50;;;3.28;;
10442;SDS011;5269;51.146;16.986;2022-12-08T01:25:52;5.13;;;3.20;;
10442;SDS011;5269;51.146;16.986;2022-12-08T01:28:31;4.03;;;3.55;;
10442;SDS011;5269;51.146;16.986;2022-12-08T01:31:03;5.65;;;3.60;;
10442;SDS011;5269;51.146;16.986;2022-12-08T01:33:50;4.40;;;3.47;;
10442;SDS011;5269;51.146;16.986;2022-12-08T01:36:23;4.70;;;3.50;;
10442;SDS011;5269;51.146;16.986;2022-12-08T01:39:00;5.40;;;3.90;;
10442;SDS011;5269;51.146;16.986;2022-12-08T01:41:31;4.35;;;3.40;;
10442;SDS011;5269;51.146;16.986;2022-12-08T01:47:18;5.03;;;3.60;;
10442;SDS011;5269;51.146;16.986;2022-12-08T01:49:46;5.15;;;4.07;;
10442;SDS011;5269;51.146;16.986;2022-12-08T01:52:18;6.20;;;3.53;;
10442;SDS011;5269;51.146;16.986;2022-12-08T01:55:02;4.70;;;3.90;;
10442;SDS011;5269;51.146;16.986;2022-12-08T01:57:40;10.13;;;3.80;;
10442;SDS011;5269;51.146;16.986;2022-12-08T02:00:21;3.95;;;3.47;;
10442;SDS011;5269;51.146;16.986;2022-12-08T02:03:01;6.18;;;3.58;;
10442;SDS011;5269;51.146;16.986;2022-12-08T02:05:32;5.18;;;3.47;;
10442;SDS011;5269;51.146;16.986;2022-12-08T02:08:21;4.40;;;3.10;;
10442;SDS011;5269;51.146;16.986;2022-12-08T02:10:59;4.90;;;3.38;;
10442;SDS011;5269;51.146;16.986;2022-12-08T02:13:30;4.38;;;3.45;;
10442;SDS011;5269;51.146;16.986;2022-12-08T02:15:59;6.90;;;3.53;;
10442;SDS011;5269;51.146;16.986;2022-12-08T02:18:40;4.82;;;3.50;;
10442;SDS011;5269;51.146;16.986;2022-12-08T02:21:29;5.07;;;3.40;;
10442;SDS011;5269;51.146;16.986;2022-12-08T02:24:08;4.85;;;3.38;;
10442;SDS011;5269;51.146;16.986;2022-12-08T02:26:59;5.57;;;3.60;;
10442;SDS011;5269;51.146;16.986;2022-12-08T02:30:04;6.97;;;3.47;;
10442;SDS011;5269;51.146;16.986;2022-12-08T02:36:01;4.37;;;3.20;;
10442;SDS011;5269;51.146;16.986;2022-12-08T02:38:43;8.63;;;3.58;;
10442;SDS011;5269;51.146;16.986;2022-12-08T02:41:31;5.28;;;3.38;;
10442;SDS011;5269;51.146;16.986;2022-12-08T02:44:11;3.33;;;3.03;;
10442;SDS011;5269;51.146;16.986;2022-12-08T02:47:10;4.93;;;3.30;;
10442;SDS011;5269;51.146;16.986;2022-12-08T02:49:47;4.45;;;3.08;;
10442;SDS011;5269;51.146;16.986;2022-12-08T02:55:18;6.13;;;3.40;;
10442;SDS011;5269;51.146;16.986;2022-12-08T03:00:59;6.28;;;3.13;;
10442;SDS011;5269;51.146;16.986;2022-12-08T03:03:53;3.63;;;3.20;;
10442;SDS011;5269;51.146;16.986;2022-12-08T03:06:34;5.93;;;3.50;;
10442;SDS011;5269;51.146;16.986;2022-12-08T03:09:28;4.13;;;3.53;;
10442;SDS011;5269;51.146;16.986;2022-12-08T03:12:08;3.90;;;3.35;;
10442;SDS011;5269;51.146;16.986;2022-12-08T03:14:45;4.80;;;3.53;;
10442;SDS011;5269;51.146;16.986;2022-12-08T03:17:29;6.72;;;3.60;;
10442;SDS011;5269;51.146;16.986;2022-12-08T03:19:58;4.43;;;3.63;;
10442;SDS011;5269;51.146;16.986;2022-12-08T03:22:28;5.40;;;3.63;;
10442;SDS011;5269;51.146;16.986;2022-12-08T03:24:57;6.15;;;3.83;;
10442;SDS011;5269;51.146;16.986;2022-12-08T03:27:25;5.60;;;3.60;;
10442;SDS011;5269;51.146;16.986;2022-12-08T03:29:59;4.80;;;3.83;;
10442;SDS011;5269;51.146;16.986;2022-12-08T03:32:38;5.85;;;3.45;;
10442;SDS011;5269;51.146;16.986;2022-12-08T03:35:29;5.43;;;4.15;;
10442;SDS011;5269;51.146;16.986;2022-12-08T03:38:02;5.97;;;4.45;;
10442;SDS011;5269;51.146;16.986;2022-12-08T03:40:33;6.85;;;5.07;;
10442;SDS011;5269;51.146;16.986;2022-12-08T03:43:08;8.32;;;6.25;;
10442;SDS011;5269;51.146;16.986;2022-12-08T03:45:37;8.52;;;6.07;;
10442;SDS011;5269;51.146;16.986;2022-12-08T03:48:10;7.10;;;5.50;;
10442;SDS011;5269;51.146;16.986;2022-12-08T03:50:38;9.63;;;5.70;;
10442;SDS011;5269;51.146;16.986;2022-12-08T03:53:39;7.63;;;4.70;;
10442;SDS011;5269;51.146;16.986;2022-12-08T03:56:21;6.53;;;4.85;;
10442;SDS011;5269;51.146;16.986;2022-12-08T03:58:53;4.20;;;3.80;;
10442;SDS011;5269;51.146;16.986;2022-12-08T04:01:28;5.18;;;4.20;;
10442;SDS011;5269;51.146;16.986;2022-12-08T04:03:55;4.47;;;3.80;;
10442;SDS011;5269;51.146;16.986;2022-12-08T04:06:29;5.15;;;3.85;;
10442;SDS011;5269;51.146;16.986;2022-12-08T04:08:58;4.93;;;4.00;;
10442;SDS011;5269;51.146;16.986;2022-12-08T04:11:29;4.60;;;4.05;;
10442;SDS011;5269;51.146;16.986;2022-12-08T04:14:01;4.88;;;4.05;;
10442;SDS011;5269;51.146;16.986;2022-12-08T04:16:41;4.57;;;4.10;;
10442;SDS011;5269;51.146;16.986;2022-12-08T04:19:28;4.72;;;4.07;;
10442;SDS011;5269;51.146;16.986;2022-12-08T04:22:00;5.00;;;4.20;;
10442;SDS011;5269;51.146;16.986;2022-12-08T04:24:36;6.95;;;4.80;;
10442;SDS011;5269;51.146;16.986;2022-12-08T04:27:09;4.90;;;4.18;;
10442;SDS011;5269;51.146;16.986;2022-12-08T04:29:39;5.95;;;4.50;;
10442;SDS011;5269;51.146;16.986;2022-12-08T04:32:06;4.75;;;4.25;;
10442;SDS011;5269;51.146;16.986;2022-12-08T04:34:41;6.22;;;4.82;;
10442;SDS011;5269;51.146;16.986;2022-12-08T04:37:21;7.00;;;4.85;;
10442;SDS011;5269;51.146;16.986;2022-12-08T04:40:01;6.00;;;4.47;;
10442;SDS011;5269;51.146;16.986;2022-12-08T04:42:30;5.45;;;4.60;;
10442;SDS011;5269;51.146;16.986;2022-12-08T04:44:58;5.05;;;4.53;;
10442;SDS011;5269;51.146;16.986;2022-12-08T04:47:29;5.40;;;4.72;;
10442;SDS011;5269;51.146;16.986;2022-12-08T04:49:58;5.93;;;4.43;;
10442;SDS011;5269;51.146;16.986;2022-12-08T04:52:31;5.53;;;4.63;;
10442;SDS011;5269;51.146;16.986;2022-12-08T04:55:10;5.45;;;4.20;;
10442;SDS011;5269;51.146;16.986;2022-12-08T05:00:21;5.53;;;4.35;;
10442;SDS011;5269;51.146;16.986;2022-12-08T05:02:49;6.15;;;4.57;;
10442;SDS011;5269;51.146;16.986;2022-12-08T05:05:18;6.82;;;4.97;;
10442;SDS011;5269;51.146;16.986;2022-12-08T05:07:51;6.75;;;4.82;;
10442;SDS011;5269;51.146;16.986;2022-12-08T05:13:09;6.43;;;4.97;;
10442;SDS011;5269;51.146;16.986;2022-12-08T05:15:49;5.53;;;4.88;;
10442;SDS011;5269;51.146;16.986;2022-12-08T05:20:58;7.63;;;5.20;;
10442;SDS011;5269;51.146;16.986;2022-12-08T05:23:25;5.70;;;5.10;;
10442;SDS011;5269;51.146;16.986;2022-12-08T05:28:30;6.72;;;5.18;;
10442;SDS011;5269;51.146;16.986;2022-12-08T05:31:00;7.00;;;5.13;;
10442;SDS011;5269;51.146;16.986;2022-12-08T05:33:27;8.15;;;5.45;;
10442;SDS011;5269;51.146;16.986;2022-12-08T05:36:03;6.50;;;5.15;;
10442;SDS011;5269;51.146;16.986;2022-12-08T05:38:37;6.88;;;5.07;;
10442;SDS011;5269;51.146;16.986;2022-12-08T05:41:08;6.55;;;5.05;;
10442;SDS011;5269;51.146;16.986;2022-12-08T05:43:38;7.25;;;5.70;;
10442;SDS011;5269;51.146;16.986;2022-12-08T05:46:08;6.57;;;5.50;;
10442;SDS011;5269;51.146;16.986;2022-12-08T05:48:36;8.90;;;5.38;;
10442;SDS011;5269;51.146;16.986;2022-12-08T05:51:11;6.88;;;5.55;;
10442;SDS011;5269;51.146;16.986;2022-12-08T05:53:43;7.10;;;5.78;;
10442;SDS011;5269;51.146;16.986;2022-12-08T05:56:14;8.63;;;5.68;;
10442;SDS011;5269;51.146;16.986;2022-12-08T05:58:46;7.70;;;6.07;;
10442;SDS011;5269;51.146;16.986;2022-12-08T06:01:21;6.97;;;5.72;;
10442;SDS011;5269;51.146;16.986;2022-12-08T06:04:01;7.20;;;6.07;;
10442;SDS011;5269;51.146;16.986;2022-12-08T06:06:33;6.88;;;6.03;;
10442;SDS011;5269;51.146;16.986;2022-12-08T06:09:03;8.13;;;6.07;;
10442;SDS011;5269;51.146;16.986;2022-12-08T06:11:36;8.13;;;6.00;;
10442;SDS011;5269;51.146;16.986;2022-12-08T06:14:03;8.63;;;6.18;;
10442;SDS011;5269;51.146;16.986;2022-12-08T06:16:37;8.02;;;6.13;;
10442;SDS011;5269;51.146;16.986;2022-12-08T06:19:05;8.40;;;6.32;;
10442;SDS011;5269;51.146;16.986;2022-12-08T06:21:35;7.65;;;6.60;;
10442;SDS011;5269;51.146;16.986;2022-12-08T06:24:23;9.23;;;6.50;;
10442;SDS011;5269;51.146;16.986;2022-12-08T06:26:50;9.55;;;7.22;;
10442;SDS011;5269;51.146;16.986;2022-12-08T06:29:19;9.90;;;6.73;;
10442;SDS011;5269;51.146;16.986;2022-12-08T06:31:49;9.02;;;6.32;;
10442;SDS011;5269;51.146;16.986;2022-12-08T06:34:17;10.23;;;6.67;;
10442;SDS011;5269;51.146;16.986;2022-12-08T06:36:44;7.65;;;6.85;;
10442;SDS011;5269;51.146;16.986;2022-12-08T06:39:21;10.70;;;7.25;;
10442;SDS011;5269;51.146;16.986;2022-12-08T06:41:48;9.85;;;6.85;;
10442;SDS011;5269;51.146;16.986;2022-12-08T06:44:32;8.70;;;6.30;;
10442;SDS011;5269;51.146;16.986;2022-12-08T06:47:09;8.03;;;6.77;;
10442;SDS011;5269;51.146;16.986;2022-12-08T06:49:38;11.07;;;6.97;;
10442;SDS011;5269;51.146;16.986;2022-12-08T06:52:05;9.53;;;7.30;;
10442;SDS011;5269;51.146;16.986;2022-12-08T06:54:33;9.10;;;7.30;;
10442;SDS011;5269;51.146;16.986;2022-12-08T06:57:02;9.67;;;7.07;;
10442;SDS011;5269;51.146;16.986;2022-12-08T06:59:29;7.87;;;6.97;;
10442;SDS011;5269;51.146;16.986;2022-12-08T07:01:58;9.00;;;7.10;;
10442;SDS011;5269;51.146;16.986;2022-12-08T07:04:27;11.40;;;6.85;;
10442;SDS011;5269;51.146;16.986;2022-12-08T07:06:57;8.77;;;6.70;;
10442;SDS011;5269;51.146;16.986;2022-12-08T07:09:24;10.27;;;6.93;;
10442;SDS011;5269;51.146;16.986;2022-12-08T07:11:54;12.10;;;7.47;;
10442;SDS011;5269;51.146;16.986;2022-12-08T07:14:23;10.20;;;7.47;;
10442;SDS011;5269;51.146;16.986;2022-12-08T07:16:53;9.88;;;6.90;;
10442;SDS011;5269;51.146;16.986;2022-12-08T07:19:28;8.43;;;6.30;;
10442;SDS011;5269;51.146;16.986;2022-12-08T07:21:55;9.30;;;6.93;;
10442;SDS011;5269;51.146;16.986;2022-12-08T07:24:25;8.95;;;6.90;;
10442;SDS011;5269;51.146;16.986;2022-12-08T07:26:57;9.30;;;6.50;;
10442;SDS011;5269;51.146;16.986;2022-12-08T07:29:24;10.47;;;6.77;;
10442;SDS011;5269;51.146;16.986;2022-12-08T07:31:53;8.23;;;6.45;;
10442;SDS011;5269;51.146;16.986;2022-12-08T07:34:27;10.20;;;7.10;;
10442;SDS011;5269;51.146;16.986;2022-12-08T07:36:54;8.27;;;6.53;;
10442;SDS011;5269;51.146;16.986;2022-12-08T07:39:21;9.18;;;7.07;;
10442;SDS011;5269;51.146;16.986;2022-12-08T07:41:49;8.90;;;6.73;;
10442;SDS011;5269;51.146;16.986;2022-12-08T07:44:16;9.17;;;6.97;;
10442;SDS011;5269;51.146;16.986;2022-12-08T07:46:46;8.27;;;6.40;;
10442;SDS011;5269;51.146;16.986;2022-12-08T07:49:13;9.23;;;6.73;;
10442;SDS011;5269;51.146;16.986;2022-12-08T07:51:43;11.75;;;7.85;;
10442;SDS011;5269;51.146;16.986;2022-12-08T07:54:19;8.57;;;6.43;;
10442;SDS011;5269;51.146;16.986;2022-12-08T07:56:46;8.18;;;6.35;;
10442;SDS011;5269;51.146;16.986;2022-12-08T07:59:13;10.25;;;7.28;;
10442;SDS011;5269;51.146;16.986;2022-12-08T08:01:48;8.15;;;6.47;;
10442;SDS011;5269;51.146;16.986;2022-12-08T08:04:15;9.00;;;6.40;;
10442;SDS011;5269;51.146;16.986;2022-12-08T08:06:44;8.95;;;6.70;;
10442;SDS011;5269;51.146;16.986;2022-12-08T08:09:15;9.63;;;7.30;;
10442;SDS011;5269;51.146;16.986;2022-12-08T08:11:42;9.55;;;6.55;;
10442;SDS011;5269;51.146;16.986;2022-12-08T08:14:09;10.53;;;6.90;;
10442;SDS011;5269;51.146;16.986;2022-12-08T08:16:36;8.50;;;6.25;;
10442;SDS011;5269;51.146;16.986;2022-12-08T08:19:05;9.35;;;7.00;;
10442;SDS011;5269;51.146;16.986;2022-12-08T08:21:33;11.13;;;7.30;;
10442;SDS011;5269;51.146;16.986;2022-12-08T08:24:01;10.77;;;6.60;;
10442;SDS011;5269;51.146;16.986;2022-12-08T08:26:28;10.70;;;7.40;;
10442;SDS011;5269;51.146;16.986;2022-12-08T08:28:55;10.50;;;7.00;;
10442;SDS011;5269;51.146;16.986;2022-12-08T08:31:23;8.70;;;6.97;;
10442;SDS011;5269;51.146;16.986;2022-12-08T08:33:50;8.95;;;7.03;;
10442;SDS011;5269;51.146;16.986;2022-12-08T08:36:18;11.18;;;8.00;;
10442;SDS011;5269;51.146;16.986;2022-12-08T08:38:46;9.38;;;6.82;;
10442;SDS011;5269;51.146;16.986;2022-12-08T08:41:14;9.73;;;6.50;;
10442;SDS011;5269;51.146;16.986;2022-12-08T08:43:41;8.07;;;6.50;;
10442;SDS011;5269;51.146;16.986;2022-12-08T08:46:08;6.72;;;6.03;;
10442;SDS011;5269;51.146;16.986;2022-12-08T08:48:35;8.90;;;6.25;;
10442;SDS011;5269;51.146;16.986;2022-12-08T08:51:06;7.53;;;5.70;;
10442;SDS011;5269;51.146;16.986;2022-12-08T08:53:34;7.50;;;6.18;;
10442;SDS011;5269;51.146;16.986;2022-12-08T08:56:02;6.53;;;5.50;;
10442;SDS011;5269;51.146;16.986;2022-12-08T08:58:34;6.35;;;5.28;;
10442;SDS011;5269;51.146;16.986;2022-12-08T09:01:01;7.28;;;5.35;;
10442;SDS011;5269;51.146;16.986;2022-12-08T09:03:28;7.00;;;5.07;;
10442;SDS011;5269;51.146;16.986;2022-12-08T09:05:55;5.40;;;4.65;;
10442;SDS011;5269;51.146;16.986;2022-12-08T09:08:22;6.63;;;4.78;;
10442;SDS011;5269;51.146;16.986;2022-12-08T09:10:49;6.15;;;4.95;;
10442;SDS011;5269;51.146;16.986;2022-12-08T09:13:17;7.20;;;4.95;;
10442;SDS011;5269;51.146;16.986;2022-12-08T09:15:45;6.28;;;4.90;;
10442;SDS011;5269;51.146;16.986;2022-12-08T09:18:12;6.28;;;4.50;;
10442;SDS011;5269;51.146;16.986;2022-12-08T09:20:39;5.10;;;4.60;;
10442;SDS011;5269;51.146;16.986;2022-12-08T09:23:06;7.43;;;4.68;;
10442;SDS011;5269;51.146;16.986;2022-12-08T09:25:33;5.95;;;4.75;;
10442;SDS011;5269;51.146;16.986;2022-12-08T09:28:00;8.15;;;4.85;;
10442;SDS011;5269;51.146;16.986;2022-12-08T09:30:27;6.00;;;5.43;;
10442;SDS011;5269;51.146;16.986;2022-12-08T09:32:55;6.78;;;5.22;;
10442;SDS011;5269;51.146;16.986;2022-12-08T09:35:22;5.90;;;4.60;;
10442;SDS011;5269;51.146;16.986;2022-12-08T09:37:49;4.72;;;4.20;;
10442;SDS011;5269;51.146;16.986;2022-12-08T09:40:17;8.13;;;4.88;;
10442;SDS011;5269;51.146;16.986;2022-12-08T09:42:47;5.50;;;4.60;;
10442;SDS011;5269;51.146;16.986;2022-12-08T09:45:17;6.45;;;4.80;;
10442;SDS011;5269;51.146;16.986;2022-12-08T09:47:52;5.10;;;4.60;;
10442;SDS011;5269;51.146;16.986;2022-12-08T09:50:28;6.03;;;4.57;;
10442;SDS011;5269;51.146;16.986;2022-12-08T09:52:59;6.05;;;4.57;;
10442;SDS011;5269;51.146;16.986;2022-12-08T09:55:35;6.75;;;5.05;;
10442;SDS011;5269;51.146;16.986;2022-12-08T09:58:08;5.82;;;4.75;;
10442;SDS011;5269;51.146;16.986;2022-12-08T10:00:42;5.75;;;4.95;;
10442;SDS011;5269;51.146;16.986;2022-12-08T10:03:11;4.55;;;4.07;;
10442;SDS011;5269;51.146;16.986;2022-12-08T10:05:40;5.05;;;4.55;;
10442;SDS011;5269;51.146;16.986;2022-12-08T10:08:15;5.22;;;4.65;;
10442;SDS011;5269;51.146;16.986;2022-12-08T10:10:46;6.95;;;4.40;;
10442;SDS011;5269;51.146;16.986;2022-12-08T10:13:18;7.90;;;4.43;;
10442;SDS011;5269;51.146;16.986;2022-12-08T10:15:51;6.93;;;4.95;;
10442;SDS011;5269;51.146;16.986;2022-12-08T10:18:25;6.95;;;4.60;;
10442;SDS011;5269;51.146;16.986;2022-12-08T10:20:55;6.88;;;4.90;;
10442;SDS011;5269;51.146;16.986;2022-12-08T10:23:26;6.25;;;4.68;;
10442;SDS011;5269;51.146;16.986;2022-12-08T10:25:57;6.40;;;5.22;;
10442;SDS011;5269;51.146;16.986;2022-12-08T10:28:27;5.95;;;4.78;;
10442;SDS011;5269;51.146;16.986;2022-12-08T10:30:54;4.90;;;4.32;;
10442;SDS011;5269;51.146;16.986;2022-12-08T10:33:21;5.43;;;4.60;;
10442;SDS011;5269;51.146;16.986;2022-12-08T10:35:51;6.47;;;5.22;;
10442;SDS011;5269;51.146;16.986;2022-12-08T10:38:22;4.78;;;4.32;;
10442;SDS011;5269;51.146;16.986;2022-12-08T10:40:53;6.45;;;4.93;;
10442;SDS011;5269;51.146;16.986;2022-12-08T10:43:24;6.35;;;4.85;;
10442;SDS011;5269;51.146;16.986;2022-12-08T10:45:53;5.68;;;4.88;;
10442;SDS011;5269;51.146;16.986;2022-12-08T10:48:21;5.97;;;5.00;;
10442;SDS011;5269;51.146;16.986;2022-12-08T10:50:54;6.47;;;5.20;;
10442;SDS011;5269;51.146;16.986;2022-12-08T10:53:23;5.82;;;5.00;;
10442;SDS011;5269;51.146;16.986;2022-12-08T10:55:52;5.10;;;4.25;;
10442;SDS011;5269;51.146;16.986;2022-12-08T10:58:32;5.80;;;5.00;;
10442;SDS011;5269;51.146;16.986;2022-12-08T11:01:01;6.30;;;5.13;;
10442;SDS011;5269;51.146;16.986;2022-12-08T11:03:32;5.40;;;4.75;;
10442;SDS011;5269;51.146;16.986;2022-12-08T11:06:09;5.43;;;4.28;;
10442;SDS011;5269;51.146;16.986;2022-12-08T11:08:48;8.43;;;4.85;;
10442;SDS011;5269;51.146;16.986;2022-12-08T11:11:18;6.65;;;5.05;;
10442;SDS011;5269;51.146;16.986;2022-12-08T11:13:47;5.70;;;5.03;;
10442;SDS011;5269;51.146;16.986;2022-12-08T11:16:15;6.13;;;4.97;;
10442;SDS011;5269;51.146;16.986;2022-12-08T11:18:44;5.72;;;5.10;;
10442;SDS011;5269;51.146;16.986;2022-12-08T11:21:16;5.43;;;4.80;;
10442;SDS011;5269;51.146;16.986;2022-12-08T11:23:45;5.72;;;4.70;;
10442;SDS011;5269;51.146;16.986;2022-12-08T11:26:17;4.70;;;4.20;;
10442;SDS011;5269;51.146;16.986;2022-12-08T11:28:51;4.68;;;4.25;;
10442;SDS011;5269;51.146;16.986;2022-12-08T11:31:21;4.80;;;4.30;;
10442;SDS011;5269;51.146;16.986;2022-12-08T11:33:54;5.10;;;4.20;;
10442;SDS011;5269;51.146;16.986;2022-12-08T11:36:24;5.15;;;4.45;;
10442;SDS011;5269;51.146;16.986;2022-12-08T11:38:55;5.97;;;4.47;;
10442;SDS011;5269;51.146;16.986;2022-12-08T11:41:24;4.85;;;4.07;;
10442;SDS011;5269;51.146;16.986;2022-12-08T11:43:57;6.35;;;4.90;;
10442;SDS011;5269;51.146;16.986;2022-12-08T11:46:31;5.95;;;4.72;;
10442;SDS011;5269;51.146;16.986;2022-12-08T11:49:02;4.82;;;4.25;;
10442;SDS011;5269;51.146;16.986;2022-12-08T11:51:33;7.40;;;4.97;;
10442;SDS011;5269;51.146;16.986;2022-12-08T11:54:14;6.30;;;4.93;;
10442;SDS011;5269;51.146;16.986;2022-12-08T11:56:48;8.00;;;5.20;;
10442;SDS011;5269;51.146;16.986;2022-12-08T11:59:20;5.78;;;4.90;;
10442;SDS011;5269;51.146;16.986;2022-12-08T12:01:55;5.40;;;4.35;;
10442;SDS011;5269;51.146;16.986;2022-12-08T12:04:24;5.38;;;4.80;;
10442;SDS011;5269;51.146;16.986;2022-12-08T12:07:07;6.22;;;4.88;;
10442;SDS011;5269;51.146;16.986;2022-12-08T12:09:54;6.82;;;4.78;;
10442;SDS011;5269;51.146;16.986;2022-12-08T12:12:37;6.63;;;4.85;;
10442;SDS011;5269;51.146;16.986;2022-12-08T12:18:30;5.90;;;4.65;;
10442;SDS011;5269;51.146;16.986;2022-12-08T12:21:04;7.05;;;5.07;;
10442;SDS011;5269;51.146;16.986;2022-12-08T12:23:39;6.53;;;4.88;;
10442;SDS011;5269;51.146;16.986;2022-12-08T12:26:15;5.60;;;5.10;;
10442;SDS011;5269;51.146;16.986;2022-12-08T12:28:47;6.03;;;5.20;;
10442;SDS011;5269;51.146;16.986;2022-12-08T12:31:20;10.15;;;5.70;;
10442;SDS011;5269;51.146;16.986;2022-12-08T12:33:53;7.30;;;5.32;;
10442;SDS011;5269;51.146;16.986;2022-12-08T12:36:30;7.55;;;5.53;;
10442;SDS011;5269;51.146;16.986;2022-12-08T12:39:00;6.50;;;5.65;;
10442;SDS011;5269;51.146;16.986;2022-12-08T12:41:35;7.72;;;5.63;;
10442;SDS011;5269;51.146;16.986;2022-12-08T12:44:21;5.18;;;4.63;;
10442;SDS011;5269;51.146;16.986;2022-12-08T12:47:04;6.20;;;5.47;;
10442;SDS011;5269;51.146;16.986;2022-12-08T12:52:44;6.70;;;5.90;;
10442;SDS011;5269;51.146;16.986;2022-12-08T12:55:49;6.57;;;5.38;;
10442;SDS011;5269;51.146;16.986;2022-12-08T12:58:21;7.43;;;5.70;;
10442;SDS011;5269;51.146;16.986;2022-12-08T13:04:05;7.03;;;5.60;;
10442;SDS011;5269;51.146;16.986;2022-12-08T13:06:37;6.07;;;5.15;;
10442;SDS011;5269;51.146;16.986;2022-12-08T13:11:52;7.15;;;5.75;;
10442;SDS011;5269;51.146;16.986;2022-12-08T13:14:26;6.88;;;5.30;;
10442;SDS011;5269;51.146;16.986;2022-12-08T13:20:17;5.90;;;5.05;;
10442;SDS011;5269;51.146;16.986;2022-12-08T13:23:02;7.63;;;5.80;;
10442;SDS011;5269;51.146;16.986;2022-12-08T13:25:45;6.50;;;5.22;;
10442;SDS011;5269;51.146;16.986;2022-12-08T13:28:19;8.40;;;6.15;;
10442;SDS011;5269;51.146;16.986;2022-12-08T13:30:53;6.45;;;5.70;;
10442;SDS011;5269;51.146;16.986;2022-12-08T13:33:23;6.80;;;5.75;;
10442;SDS011;5269;51.146;16.986;2022-12-08T13:36:04;8.20;;;5.90;;
10442;SDS011;5269;51.146;16.986;2022-12-08T13:38:41;9.27;;;5.82;;
10442;SDS011;5269;51.146;16.986;2022-12-08T13:41:12;7.25;;;5.82;;
10442;SDS011;5269;51.146;16.986;2022-12-08T13:43:51;9.48;;;6.57;;
10442;SDS011;5269;51.146;16.986;2022-12-08T13:46:30;8.43;;;6.28;;
10442;SDS011;5269;51.146;16.986;2022-12-08T13:49:12;6.95;;;6.10;;
10442;SDS011;5269;51.146;16.986;2022-12-08T13:51:53;8.02;;;6.13;;
10442;SDS011;5269;51.146;16.986;2022-12-08T13:54:25;7.47;;;6.20;;
10442;SDS011;5269;51.146;16.986;2022-12-08T13:56:56;8.23;;;6.20;;
10442;SDS011;5269;51.146;16.986;2022-12-08T13:59:30;7.15;;;5.93;;
10442;SDS011;5269;51.146;16.986;2022-12-08T14:02:00;9.55;;;6.38;;
10442;SDS011;5269;51.146;16.986;2022-12-08T14:04:30;7.72;;;5.53;;
10442;SDS011;5269;51.146;16.986;2022-12-08T14:06:58;7.47;;;5.97;;
10442;SDS011;5269;51.146;16.986;2022-12-08T14:09:31;7.47;;;6.13;;
10442;SDS011;5269;51.146;16.986;2022-12-08T14:12:16;8.82;;;6.93;;
10442;SDS011;5269;51.146;16.986;2022-12-08T14:14:47;7.95;;;6.40;;
10442;SDS011;5269;51.146;16.986;2022-12-08T14:17:49;9.25;;;6.57;;
10442;SDS011;5269;51.146;16.986;2022-12-08T14:20:18;9.05;;;6.13;;
10442;SDS011;5269;51.146;16.986;2022-12-08T14:22:51;7.85;;;6.10;;
10442;SDS011;5269;51.146;16.986;2022-12-08T14:25:19;8.52;;;6.78;;
10442;SDS011;5269;51.146;16.986;2022-12-08T14:27:47;8.73;;;6.45;;
10442;SDS011;5269;51.146;16.986;2022-12-08T14:34:04;8.52;;;6.35;;
10442;SDS011;5269;51.146;16.986;2022-12-08T14:36:38;6.93;;;6.10;;
10442;SDS011;5269;51.146;16.986;2022-12-08T14:40:22;8.63;;;6.70;;
10442;SDS011;5269;51.146;16.986;2022-12-08T14:42:35;8.18;;;6.22;;
10442;SDS011;5269;51.146;16.986;2022-12-08T14:45:12;7.13;;;6.15;;
10442;SDS011;5269;51.146;16.986;2022-12-08T14:47:43;8.48;;;5.65;;
10442;SDS011;5269;51.146;16.986;2022-12-08T14:50:40;8.30;;;6.13;;
10442;SDS011;5269;51.146;16.986;2022-12-08T14:53:12;8.02;;;6.32;;
10442;SDS011;5269;51.146;16.986;2022-12-08T14:55:45;8.05;;;6.13;;
10442;SDS011;5269;51.146;16.986;2022-12-08T14:58:17;7.20;;;6.05;;
10442;SDS011;5269;51.146;16.986;2022-12-08T15:00:55;8.55;;;6.28;;
10442;SDS011;5269;51.146;16.986;2022-12-08T15:03:32;9.63;;;6.30;;
10442;SDS011;5269;51.146;16.986;2022-12-08T15:06:04;8.07;;;6.40;;
10442;SDS011;5269;51.146;16.986;2022-12-08T15:08:32;8.52;;;6.03;;
10442;SDS011;5269;51.146;16.986;2022-12-08T15:11:23;9.50;;;6.78;;
10442;SDS011;5269;51.146;16.986;2022-12-08T15:14:23;7.68;;;6.22;;
10442;SDS011;5269;51.146;16.986;2022-12-08T15:20:02;11.00;;;6.70;;
10442;SDS011;5269;51.146;16.986;2022-12-08T15:23:01;8.45;;;6.15;;
10442;SDS011;5269;51.146;16.986;2022-12-08T15:25:29;6.60;;;5.88;;
10442;SDS011;5269;51.146;16.986;2022-12-08T15:27:56;7.53;;;6.07;;
10442;SDS011;5269;51.146;16.986;2022-12-08T15:30:26;8.50;;;6.45;;
10442;SDS011;5269;51.146;16.986;2022-12-08T15:33:03;8.68;;;6.22;;
10442;SDS011;5269;51.146;16.986;2022-12-08T15:35:33;8.18;;;6.88;;
10442;SDS011;5269;51.146;16.986;2022-12-08T15:38:01;8.38;;;6.63;;
10442;SDS011;5269;51.146;16.986;2022-12-08T15:40:30;7.47;;;6.00;;
10442;SDS011;5269;51.146;16.986;2022-12-08T15:42:57;9.05;;;6.82;;
10442;SDS011;5269;51.146;16.986;2022-12-08T15:45:25;10.52;;;7.20;;
10442;SDS011;5269;51.146;16.986;2022-12-08T15:47:55;14.38;;;7.78;;
10442;SDS011;5269;51.146;16.986;2022-12-08T15:50:22;11.23;;;7.32;;
10442;SDS011;5269;51.146;16.986;2022-12-08T15:52:52;11.50;;;7.45;;
10442;SDS011;5269;51.146;16.986;2022-12-08T15:55:32;11.13;;;8.23;;
10442;SDS011;5269;51.146;16.986;2022-12-08T16:05:58;15.07;;;8.50;;
10442;SDS011;5269;51.146;16.986;2022-12-08T16:59:31;8.35;;;5.70;;
10442;SDS011;5269;51.146;16.986;2022-12-08T17:02:02;8.13;;;5.38;;
10442;SDS011;5269;51.146;16.986;2022-12-08T17:04:38;7.63;;;5.47;;
10442;SDS011;5269;51.146;16.986;2022-12-08T17:07:21;7.80;;;6.00;;
10442;SDS011;5269;51.146;16.986;2022-12-08T17:09:51;8.75;;;5.80;;